sensor_id;sensor_type;location;lat;lon;timestamp;temperature;humidity
10270;DHT22;70826;50.930;5.334;2023-12-20T00:01:11;20.20;68.20
10270;DHT22;70826;50.930;5.334;2023-12-20T00:03:39;20.20;68.20
10270;DHT22;70826;50.930;5.334;2023-12-20T00:06:05;20.20;68.20
10270;DHT22;70826;50.930;5.334;2023-12-20T00:08:33;20.20;68.20
10270;DHT22;70826;50.930;5.334;2023-12-20T00:10:58;20.20;68.20
10270;DHT22;70826;50.930;5.334;2023-12-20T00:13:24;20.20;68.20
10270;DHT22;70826;50.930;5.334;2023-12-20T00:15:54;20.20;68.10
10270;DHT22;70826;50.930;5.334;2023-12-20T00:18:22;20.20;68.10
10270;DHT22;70826;50.930;5.334;2023-12-20T00:20:48;20.20;68.00
10270;DHT22;70826;50.930;5.334;2023-12-20T00:23:14;20.20;68.00
10270;DHT22;70826;50.930;5.334;2023-12-20T00:25:42;20.20;68.00
10270;DHT22;70826;50.930;5.334;2023-12-20T00:28:09;20.20;68.00
10270;DHT22;70826;50.930;5.334;2023-12-20T00:30:35;20.20;67.90
10270;DHT22;70826;50.930;5.334;2023-12-20T00:33:03;20.20;67.90
10270;DHT22;70826;50.930;5.334;2023-12-20T00:35:29;20.20;67.90
10270;DHT22;70826;50.930;5.334;2023-12-20T00:38:00;20.20;67.90
10270;DHT22;70826;50.930;5.334;2023-12-20T00:40:26;20.20;67.80
10270;DHT22;70826;50.930;5.334;2023-12-20T00:42:52;20.20;67.80
10270;DHT22;70826;50.930;5.334;2023-12-20T00:45:19;20.20;67.80
10270;DHT22;70826;50.930;5.334;2023-12-20T00:47:47;20.20;67.70
10270;DHT22;70826;50.930;5.334;2023-12-20T00:50:17;20.20;67.70
10270;DHT22;70826;50.930;5.334;2023-12-20T00:52:43;20.20;67.70
10270;DHT22;70826;50.930;5.334;2023-12-20T00:55:09;20.20;67.70
10270;DHT22;70826;50.930;5.334;2023-12-20T00:57:34;20.20;67.70
10270;DHT22;70826;50.930;5.334;2023-12-20T01:00:02;20.20;67.70
10270;DHT22;70826;50.930;5.334;2023-12-20T01:02:28;20.20;67.60
10270;DHT22;70826;50.930;5.334;2023-12-20T01:04:56;20.20;67.60
10270;DHT22;70826;50.930;5.334;2023-12-20T01:07:22;20.20;67.60
10270;DHT22;70826;50.930;5.334;2023-12-20T01:09:48;20.20;67.60
10270;DHT22;70826;50.930;5.334;2023-12-20T01:12:16;20.20;67.50
10270;DHT22;70826;50.930;5.334;2023-12-20T01:14:41;20.20;67.50
10270;DHT22;70826;50.930;5.334;2023-12-20T01:17:10;20.20;67.50
10270;DHT22;70826;50.930;5.334;2023-12-20T01:19:42;20.20;67.50
10270;DHT22;70826;50.930;5.334;2023-12-20T01:22:10;20.20;67.50
10270;DHT22;70826;50.930;5.334;2023-12-20T01:24:43;20.20;67.40
10270;DHT22;70826;50.930;5.334;2023-12-20T01:27:10;20.20;67.40
10270;DHT22;70826;50.930;5.334;2023-12-20T01:29:41;20.20;67.40
10270;DHT22;70826;50.930;5.334;2023-12-20T01:32:06;20.20;67.30
10270;DHT22;70826;50.930;5.334;2023-12-20T01:34:39;20.20;67.30
10270;DHT22;70826;50.930;5.334;2023-12-20T01:37:07;20.20;67.30
10270;DHT22;70826;50.930;5.334;2023-12-20T01:39:33;20.20;67.30
10270;DHT22;70826;50.930;5.334;2023-12-20T01:42:01;20.20;67.30
10270;DHT22;70826;50.930;5.334;2023-12-20T01:44:29;20.20;67.30
10270;DHT22;70826;50.930;5.334;2023-12-20T01:46:58;20.20;67.30
10270;DHT22;70826;50.930;5.334;2023-12-20T01:49:31;20.20;67.20
10270;DHT22;70826;50.930;5.334;2023-12-20T01:51:59;20.20;67.20
10270;DHT22;70826;50.930;5.334;2023-12-20T01:54:25;20.20;67.20
10270;DHT22;70826;50.930;5.334;2023-12-20T01:56:53;20.20;67.20
10270;DHT22;70826;50.930;5.334;2023-12-20T01:59:22;20.20;67.10
10270;DHT22;70826;50.930;5.334;2023-12-20T02:01:48;20.20;67.10
10270;DHT22;70826;50.930;5.334;2023-12-20T02:04:18;20.20;67.10
10270;DHT22;70826;50.930;5.334;2023-12-20T02:06:49;20.20;67.10
10270;DHT22;70826;50.930;5.334;2023-12-20T02:09:20;20.20;67.10
10270;DHT22;70826;50.930;5.334;2023-12-20T02:11:49;20.20;67.00
10270;DHT22;70826;50.930;5.334;2023-12-20T02:14:15;20.20;67.10
10270;DHT22;70826;50.930;5.334;2023-12-20T02:16:45;20.20;67.00
10270;DHT22;70826;50.930;5.334;2023-12-20T02:19:16;20.20;67.00
10270;DHT22;70826;50.930;5.334;2023-12-20T02:21:45;20.20;67.00
10270;DHT22;70826;50.930;5.334;2023-12-20T02:24:11;20.10;66.90
10270;DHT22;70826;50.930;5.334;2023-12-20T02:26:41;20.10;66.90
10270;DHT22;70826;50.930;5.334;2023-12-20T02:29:09;20.20;67.00
10270;DHT22;70826;50.930;5.334;2023-12-20T02:31:37;20.20;66.90
10270;DHT22;70826;50.930;5.334;2023-12-20T02:34:07;20.20;66.90
10270;DHT22;70826;50.930;5.334;2023-12-20T02:36:33;20.20;66.80
10270;DHT22;70826;50.930;5.334;2023-12-20T02:39:01;20.20;66.80
10270;DHT22;70826;50.930;5.334;2023-12-20T02:41:26;20.20;66.80
10270;DHT22;70826;50.930;5.334;2023-12-20T02:43:57;20.20;66.80
10270;DHT22;70826;50.930;5.334;2023-12-20T02:46:27;20.20;66.80
10270;DHT22;70826;50.930;5.334;2023-12-20T02:48:52;20.20;66.80
10270;DHT22;70826;50.930;5.334;2023-12-20T02:51:20;20.10;66.70
10270;DHT22;70826;50.930;5.334;2023-12-20T02:53:46;20.20;66.70
10270;DHT22;70826;50.930;5.334;2023-12-20T02:56:14;20.20;66.70
10270;DHT22;70826;50.930;5.334;2023-12-20T02:58:42;20.20;66.70
10270;DHT22;70826;50.930;5.334;2023-12-20T03:01:12;20.20;66.70
10270;DHT22;70826;50.930;5.334;2023-12-20T03:03:40;20.20;66.60
10270;DHT22;70826;50.930;5.334;2023-12-20T03:06:08;20.10;66.60
10270;DHT22;70826;50.930;5.334;2023-12-20T03:08:36;20.10;66.60
10270;DHT22;70826;50.930;5.334;2023-12-20T03:11:06;20.10;66.60
10270;DHT22;70826;50.930;5.334;2023-12-20T03:13:34;20.10;66.60
10270;DHT22;70826;50.930;5.334;2023-12-20T03:16:00;20.10;67.20
10270;DHT22;70826;50.930;5.334;2023-12-20T03:18:28;20.10;66.50
10270;DHT22;70826;50.930;5.334;2023-12-20T03:20:54;20.10;66.50
10270;DHT22;70826;50.930;5.334;2023-12-20T03:23:19;20.10;66.50
10270;DHT22;70826;50.930;5.334;2023-12-20T03:25:45;20.10;67.10
10270;DHT22;70826;50.930;5.334;2023-12-20T03:28:16;20.20;66.50
10270;DHT22;70826;50.930;5.334;2023-12-20T03:30:45;20.20;66.50
10270;DHT22;70826;50.930;5.334;2023-12-20T03:33:13;20.10;66.40
10270;DHT22;70826;50.930;5.334;2023-12-20T03:35:38;20.10;66.40
10270;DHT22;70826;50.930;5.334;2023-12-20T03:38:04;20.10;66.40
10270;DHT22;70826;50.930;5.334;2023-12-20T03:40:34;20.10;66.40
10270;DHT22;70826;50.930;5.334;2023-12-20T03:43:03;20.10;66.40
10270;DHT22;70826;50.930;5.334;2023-12-20T03:45:28;20.10;66.30
10270;DHT22;70826;50.930;5.334;2023-12-20T03:47:56;20.10;67.00
10270;DHT22;70826;50.930;5.334;2023-12-20T03:50:22;20.10;66.30
10270;DHT22;70826;50.930;5.334;2023-12-20T03:52:50;20.10;66.30
10270;DHT22;70826;50.930;5.334;2023-12-20T03:55:18;20.10;66.50
10270;DHT22;70826;50.930;5.334;2023-12-20T03:57:46;20.10;66.30
10270;DHT22;70826;50.930;5.334;2023-12-20T04:00:17;20.10;66.30
10270;DHT22;70826;50.930;5.334;2023-12-20T04:02:45;20.10;66.30
10270;DHT22;70826;50.930;5.334;2023-12-20T04:05:11;20.10;66.30
10270;DHT22;70826;50.930;5.334;2023-12-20T04:07:42;20.20;66.30
10270;DHT22;70826;50.930;5.334;2023-12-20T04:10:14;20.10;66.20
10270;DHT22;70826;50.930;5.334;2023-12-20T04:12:43;20.10;66.20
10270;DHT22;70826;50.930;5.334;2023-12-20T04:15:08;20.10;66.20
10270;DHT22;70826;50.930;5.334;2023-12-20T04:17:38;20.10;66.20
10270;DHT22;70826;50.930;5.334;2023-12-20T04:20:09;20.10;66.20
10270;DHT22;70826;50.930;5.334;2023-12-20T04:22:37;20.10;66.20
10270;DHT22;70826;50.930;5.334;2023-12-20T04:25:02;20.10;66.20
10270;DHT22;70826;50.930;5.334;2023-12-20T04:27:33;20.10;66.20
10270;DHT22;70826;50.930;5.334;2023-12-20T04:29:58;20.10;66.20
10270;DHT22;70826;50.930;5.334;2023-12-20T04:32:26;20.10;66.20
10270;DHT22;70826;50.930;5.334;2023-12-20T04:34:52;20.10;66.20
10270;DHT22;70826;50.930;5.334;2023-12-20T04:37:22;20.10;66.20
10270;DHT22;70826;50.930;5.334;2023-12-20T04:39:50;20.10;66.20
10270;DHT22;70826;50.930;5.334;2023-12-20T04:42:18;20.10;66.20
10270;DHT22;70826;50.930;5.334;2023-12-20T04:44:50;20.10;66.20
10270;DHT22;70826;50.930;5.334;2023-12-20T04:47:20;20.10;66.20
10270;DHT22;70826;50.930;5.334;2023-12-20T04:49:46;20.10;66.20
10270;DHT22;70826;50.930;5.334;2023-12-20T04:52:16;20.10;66.20
10270;DHT22;70826;50.930;5.334;2023-12-20T04:54:44;20.10;66.20
10270;DHT22;70826;50.930;5.334;2023-12-20T04:57:12;20.10;66.20
10270;DHT22;70826;50.930;5.334;2023-12-20T04:59:38;20.10;66.20
10270;DHT22;70826;50.930;5.334;2023-12-20T05:02:06;20.10;66.20
10270;DHT22;70826;50.930;5.334;2023-12-20T05:04:32;20.10;66.10
10270;DHT22;70826;50.930;5.334;2023-12-20T05:07:00;20.10;66.20
10270;DHT22;70826;50.930;5.334;2023-12-20T05:09:30;20.10;66.20
10270;DHT22;70826;50.930;5.334;2023-12-20T05:11:55;20.10;66.10
10270;DHT22;70826;50.930;5.334;2023-12-20T05:14:24;20.10;66.10
10270;DHT22;70826;50.930;5.334;2023-12-20T05:16:55;20.10;66.10
10270;DHT22;70826;50.930;5.334;2023-12-20T05:19:25;20.10;66.10
10270;DHT22;70826;50.930;5.334;2023-12-20T05:21:54;20.10;66.10
10270;DHT22;70826;50.930;5.334;2023-12-20T05:24:22;20.10;66.10
10270;DHT22;70826;50.930;5.334;2023-12-20T05:26:50;20.10;66.10
10270;DHT22;70826;50.930;5.334;2023-12-20T05:29:15;20.10;66.10
10270;DHT22;70826;50.930;5.334;2023-12-20T05:31:42;20.10;66.10
10270;DHT22;70826;50.930;5.334;2023-12-20T05:34:10;20.10;66.10
10270;DHT22;70826;50.930;5.334;2023-12-20T05:36:40;20.10;66.10
10270;DHT22;70826;50.930;5.334;2023-12-20T05:39:06;20.10;66.10
10270;DHT22;70826;50.930;5.334;2023-12-20T05:41:33;20.10;66.00
10270;DHT22;70826;50.930;5.334;2023-12-20T05:44:01;20.10;66.10
10270;DHT22;70826;50.930;5.334;2023-12-20T05:46:29;20.10;66.00
10270;DHT22;70826;50.930;5.334;2023-12-20T05:48:55;20.10;66.00
10270;DHT22;70826;50.930;5.334;2023-12-20T05:51:20;20.10;66.00
10270;DHT22;70826;50.930;5.334;2023-12-20T05:53:46;20.10;65.90
10270;DHT22;70826;50.930;5.334;2023-12-20T05:56:14;20.10;66.00
10270;DHT22;70826;50.930;5.334;2023-12-20T05:58:42;20.10;65.90
10270;DHT22;70826;50.930;5.334;2023-12-20T06:01:11;20.10;65.90
10270;DHT22;70826;50.930;5.334;2023-12-20T06:03:41;20.10;66.60
10270;DHT22;70826;50.930;5.334;2023-12-20T06:06:07;20.10;65.90
10270;DHT22;70826;50.930;5.334;2023-12-20T06:08:36;20.10;65.90
10270;DHT22;70826;50.930;5.334;2023-12-20T06:11:06;20.10;65.90
10270;DHT22;70826;50.930;5.334;2023-12-20T06:13:34;20.10;65.90
10270;DHT22;70826;50.930;5.334;2023-12-20T06:16:03;20.10;65.90
10270;DHT22;70826;50.930;5.334;2023-12-20T06:18:31;20.10;65.90
10270;DHT22;70826;50.930;5.334;2023-12-20T06:20:56;20.10;65.80
10270;DHT22;70826;50.930;5.334;2023-12-20T06:23:24;20.10;65.80
10270;DHT22;70826;50.930;5.334;2023-12-20T06:25:50;20.10;65.80
10270;DHT22;70826;50.930;5.334;2023-12-20T06:28:17;20.10;65.80
10270;DHT22;70826;50.930;5.334;2023-12-20T06:30:46;20.10;65.80
10270;DHT22;70826;50.930;5.334;2023-12-20T06:33:14;20.10;65.80
10270;DHT22;70826;50.930;5.334;2023-12-20T06:35:44;20.10;65.80
10270;DHT22;70826;50.930;5.334;2023-12-20T06:38:12;20.10;65.80
10270;DHT22;70826;50.930;5.334;2023-12-20T06:40:37;20.10;65.80
10270;DHT22;70826;50.930;5.334;2023-12-20T06:43:05;20.10;65.80
10270;DHT22;70826;50.930;5.334;2023-12-20T06:45:32;20.10;65.80
10270;DHT22;70826;50.930;5.334;2023-12-20T06:47:58;20.10;65.70
10270;DHT22;70826;50.930;5.334;2023-12-20T06:50:24;20.10;65.70
10270;DHT22;70826;50.930;5.334;2023-12-20T06:52:54;20.10;65.80
10270;DHT22;70826;50.930;5.334;2023-12-20T06:55:19;20.10;65.70
10270;DHT22;70826;50.930;5.334;2023-12-20T06:57:45;20.10;65.70
10270;DHT22;70826;50.930;5.334;2023-12-20T07:00:13;20.10;65.70
10270;DHT22;70826;50.930;5.334;2023-12-20T07:02:41;20.10;65.70
10270;DHT22;70826;50.930;5.334;2023-12-20T07:05:12;20.10;65.70
10270;DHT22;70826;50.930;5.334;2023-12-20T07:07:37;20.10;65.70
10270;DHT22;70826;50.930;5.334;2023-12-20T07:10:03;20.10;65.70
10270;DHT22;70826;50.930;5.334;2023-12-20T07:12:35;20.10;65.70
10270;DHT22;70826;50.930;5.334;2023-12-20T07:15:01;20.10;66.20
10270;DHT22;70826;50.930;5.334;2023-12-20T07:17:26;20.10;65.70
10270;DHT22;70826;50.930;5.334;2023-12-20T07:19:56;20.10;65.60
10270;DHT22;70826;50.930;5.334;2023-12-20T07:22:24;20.10;65.70
10270;DHT22;70826;50.930;5.334;2023-12-20T07:24:53;20.10;65.70
10270;DHT22;70826;50.930;5.334;2023-12-20T07:27:20;20.10;65.60
10270;DHT22;70826;50.930;5.334;2023-12-20T07:29:51;20.10;65.60
10270;DHT22;70826;50.930;5.334;2023-12-20T07:32:19;20.10;65.60
10270;DHT22;70826;50.930;5.334;2023-12-20T07:34:49;20.10;65.70
10270;DHT22;70826;50.930;5.334;2023-12-20T07:37:21;20.10;65.70
10270;DHT22;70826;50.930;5.334;2023-12-20T07:39:49;20.10;65.60
10270;DHT22;70826;50.930;5.334;2023-12-20T07:42:17;20.10;65.60
10270;DHT22;70826;50.930;5.334;2023-12-20T07:44:47;20.10;65.60
10270;DHT22;70826;50.930;5.334;2023-12-20T07:47:16;20.10;65.60
10270;DHT22;70826;50.930;5.334;2023-12-20T07:49:48;20.10;65.50
10270;DHT22;70826;50.930;5.334;2023-12-20T07:52:19;20.10;65.50
10270;DHT22;70826;50.930;5.334;2023-12-20T07:54:47;20.10;65.50
10270;DHT22;70826;50.930;5.334;2023-12-20T07:57:12;20.10;65.50
10270;DHT22;70826;50.930;5.334;2023-12-20T07:59:38;20.10;65.50
10270;DHT22;70826;50.930;5.334;2023-12-20T08:02:06;20.10;65.60
10270;DHT22;70826;50.930;5.334;2023-12-20T08:04:32;20.10;65.50
10270;DHT22;70826;50.930;5.334;2023-12-20T08:07:00;20.10;65.50
10270;DHT22;70826;50.930;5.334;2023-12-20T08:09:28;20.10;65.50
10270;DHT22;70826;50.930;5.334;2023-12-20T08:11:53;20.10;65.50
10270;DHT22;70826;50.930;5.334;2023-12-20T08:14:21;20.10;65.50
10270;DHT22;70826;50.930;5.334;2023-12-20T08:16:49;20.10;65.50
10270;DHT22;70826;50.930;5.334;2023-12-20T08:19:17;20.10;65.40
10270;DHT22;70826;50.930;5.334;2023-12-20T08:21:50;20.10;65.50
10270;DHT22;70826;50.930;5.334;2023-12-20T08:24:18;20.10;65.50
10270;DHT22;70826;50.930;5.334;2023-12-20T08:26:48;20.10;65.40
10270;DHT22;70826;50.930;5.334;2023-12-20T08:29:14;20.10;65.40
10270;DHT22;70826;50.930;5.334;2023-12-20T08:31:42;20.10;65.40
10270;DHT22;70826;50.930;5.334;2023-12-20T08:34:07;20.10;65.40
10270;DHT22;70826;50.930;5.334;2023-12-20T08:36:33;20.10;65.40
10270;DHT22;70826;50.930;5.334;2023-12-20T08:39:01;20.10;65.40
10270;DHT22;70826;50.930;5.334;2023-12-20T08:41:28;20.10;65.40
10270;DHT22;70826;50.930;5.334;2023-12-20T08:43:56;20.10;65.40
10270;DHT22;70826;50.930;5.334;2023-12-20T08:46:25;20.10;65.40
10270;DHT22;70826;50.930;5.334;2023-12-20T08:48:50;20.00;65.80
10270;DHT22;70826;50.930;5.334;2023-12-20T08:51:16;19.90;66.20
10270;DHT22;70826;50.930;5.334;2023-12-20T08:53:44;19.90;66.60
10270;DHT22;70826;50.930;5.334;2023-12-20T08:56:14;19.80;66.90
10270;DHT22;70826;50.930;5.334;2023-12-20T08:58:45;19.80;67.20
10270;DHT22;70826;50.930;5.334;2023-12-20T09:01:12;19.80;67.50
10270;DHT22;70826;50.930;5.334;2023-12-20T09:03:40;19.80;67.60
10270;DHT22;70826;50.930;5.334;2023-12-20T09:06:06;19.80;67.80
10270;DHT22;70826;50.930;5.334;2023-12-20T09:08:36;19.80;68.00
10270;DHT22;70826;50.930;5.334;2023-12-20T09:11:04;19.80;68.10
10270;DHT22;70826;50.930;5.334;2023-12-20T09:13:32;19.90;68.20
10270;DHT22;70826;50.930;5.334;2023-12-20T09:16:01;19.90;68.20
10270;DHT22;70826;50.930;5.334;2023-12-20T09:18:29;20.00;68.30
10270;DHT22;70826;50.930;5.334;2023-12-20T09:20:54;20.00;68.20
10270;DHT22;70826;50.930;5.334;2023-12-20T09:23:22;20.10;68.10
10270;DHT22;70826;50.930;5.334;2023-12-20T09:25:51;20.20;68.20
10270;DHT22;70826;50.930;5.334;2023-12-20T09:28:16;20.20;68.20
10270;DHT22;70826;50.930;5.334;2023-12-20T09:30:44;20.30;68.20
10270;DHT22;70826;50.930;5.334;2023-12-20T09:33:14;20.30;68.20
10270;DHT22;70826;50.930;5.334;2023-12-20T09:35:39;20.30;68.30
10270;DHT22;70826;50.930;5.334;2023-12-20T09:38:10;20.40;68.30
10270;DHT22;70826;50.930;5.334;2023-12-20T09:40:41;20.40;68.20
10270;DHT22;70826;50.930;5.334;2023-12-20T09:43:19;20.40;68.10
10270;DHT22;70826;50.930;5.334;2023-12-20T09:45:48;20.50;68.00
10270;DHT22;70826;50.930;5.334;2023-12-20T09:48:23;20.60;67.90
10270;DHT22;70826;50.930;5.334;2023-12-20T09:50:55;20.60;67.60
10270;DHT22;70826;50.930;5.334;2023-12-20T09:53:21;20.70;67.40
10270;DHT22;70826;50.930;5.334;2023-12-20T09:55:51;20.70;67.90
10270;DHT22;70826;50.930;5.334;2023-12-20T09:58:20;20.70;67.10
10270;DHT22;70826;50.930;5.334;2023-12-20T10:00:46;20.80;66.90
10270;DHT22;70826;50.930;5.334;2023-12-20T10:03:16;20.80;66.80
10270;DHT22;70826;50.930;5.334;2023-12-20T10:05:45;20.80;66.60
10270;DHT22;70826;50.930;5.334;2023-12-20T10:08:14;20.80;66.40
10270;DHT22;70826;50.930;5.334;2023-12-20T10:10:42;20.80;66.30
10270;DHT22;70826;50.930;5.334;2023-12-20T10:13:15;20.80;66.20
10270;DHT22;70826;50.930;5.334;2023-12-20T10:15:41;20.80;66.10
10270;DHT22;70826;50.930;5.334;2023-12-20T10:18:09;20.80;66.00
10270;DHT22;70826;50.930;5.334;2023-12-20T10:20:37;20.80;66.00
10270;DHT22;70826;50.930;5.334;2023-12-20T10:23:03;20.80;65.90
10270;DHT22;70826;50.930;5.334;2023-12-20T10:25:29;20.80;65.90
10270;DHT22;70826;50.930;5.334;2023-12-20T10:28:13;20.80;65.90
10270;DHT22;70826;50.930;5.334;2023-12-20T10:30:40;20.70;65.70
10270;DHT22;70826;50.930;5.334;2023-12-20T10:33:09;20.80;65.70
10270;DHT22;70826;50.930;5.334;2023-12-20T10:35:38;20.70;65.70
10270;DHT22;70826;50.930;5.334;2023-12-20T10:38:09;20.70;65.60
10270;DHT22;70826;50.930;5.334;2023-12-20T10:40:38;20.70;65.60
10270;DHT22;70826;50.930;5.334;2023-12-20T10:43:09;20.70;65.50
10270;DHT22;70826;50.930;5.334;2023-12-20T10:45:34;20.70;65.50
10270;DHT22;70826;50.930;5.334;2023-12-20T10:48:06;20.70;65.50
10270;DHT22;70826;50.930;5.334;2023-12-20T10:50:33;20.70;65.50
10270;DHT22;70826;50.930;5.334;2023-12-20T10:53:02;20.70;65.50
10270;DHT22;70826;50.930;5.334;2023-12-20T10:55:28;20.70;65.50
10270;DHT22;70826;50.930;5.334;2023-12-20T10:58:01;20.60;66.00
10270;DHT22;70826;50.930;5.334;2023-12-20T11:00:29;20.60;65.40
10270;DHT22;70826;50.930;5.334;2023-12-20T11:03:00;20.70;65.40
10270;DHT22;70826;50.930;5.334;2023-12-20T11:05:36;20.60;65.40
10270;DHT22;70826;50.930;5.334;2023-12-20T11:08:09;20.60;65.40
10270;DHT22;70826;50.930;5.334;2023-12-20T11:13:27;20.60;65.40
10270;DHT22;70826;50.930;5.334;2023-12-20T11:15:59;20.60;65.30
10270;DHT22;70826;50.930;5.334;2023-12-20T11:18:31;20.60;65.30
10270;DHT22;70826;50.930;5.334;2023-12-20T11:21:04;20.60;65.30
10270;DHT22;70826;50.930;5.334;2023-12-20T11:23:31;20.60;65.30
10270;DHT22;70826;50.930;5.334;2023-12-20T11:25:59;20.60;65.40
10270;DHT22;70826;50.930;5.334;2023-12-20T11:28:29;20.60;65.30
10270;DHT22;70826;50.930;5.334;2023-12-20T11:30:57;20.60;65.30
10270;DHT22;70826;50.930;5.334;2023-12-20T11:33:45;20.50;65.30
10270;DHT22;70826;50.930;5.334;2023-12-20T11:36:17;20.50;65.30
10270;DHT22;70826;50.930;5.334;2023-12-20T11:39:03;20.50;65.30
10270;DHT22;70826;50.930;5.334;2023-12-20T11:41:36;20.50;65.90
10270;DHT22;70826;50.930;5.334;2023-12-20T11:44:04;20.50;65.30
10270;DHT22;70826;50.930;5.334;2023-12-20T11:46:31;20.50;65.30
10270;DHT22;70826;50.930;5.334;2023-12-20T11:48:56;20.50;65.30
10270;DHT22;70826;50.930;5.334;2023-12-20T11:51:24;20.50;65.30
10270;DHT22;70826;50.930;5.334;2023-12-20T11:53:55;20.50;65.30
10270;DHT22;70826;50.930;5.334;2023-12-20T11:56:23;20.50;65.30
10270;DHT22;70826;50.930;5.334;2023-12-20T11:58:49;20.50;65.30
10270;DHT22;70826;50.930;5.334;2023-12-20T12:01:15;20.50;65.30
10270;DHT22;70826;50.930;5.334;2023-12-20T12:03:43;20.50;65.30
10270;DHT22;70826;50.930;5.334;2023-12-20T12:06:12;20.50;65.30
10270;DHT22;70826;50.930;5.334;2023-12-20T12:08:38;20.50;65.30
10270;DHT22;70826;50.930;5.334;2023-12-20T12:11:09;20.50;65.30
10270;DHT22;70826;50.930;5.334;2023-12-20T12:13:35;20.50;65.30
10270;DHT22;70826;50.930;5.334;2023-12-20T12:16:01;20.50;65.30
10270;DHT22;70826;50.930;5.334;2023-12-20T12:18:31;20.50;65.30
10270;DHT22;70826;50.930;5.334;2023-12-20T12:21:00;20.50;65.40
10270;DHT22;70826;50.930;5.334;2023-12-20T12:23:28;20.50;65.40
10270;DHT22;70826;50.930;5.334;2023-12-20T12:25:54;20.50;65.40
10270;DHT22;70826;50.930;5.334;2023-12-20T12:28:26;20.50;65.40
10270;DHT22;70826;50.930;5.334;2023-12-20T12:31:00;20.40;65.40
10270;DHT22;70826;50.930;5.334;2023-12-20T12:33:28;20.40;65.40
10270;DHT22;70826;50.930;5.334;2023-12-20T12:35:54;20.40;65.40
10270;DHT22;70826;50.930;5.334;2023-12-20T12:38:24;20.40;65.40
10270;DHT22;70826;50.930;5.334;2023-12-20T12:40:52;20.40;65.50
10270;DHT22;70826;50.930;5.334;2023-12-20T12:43:19;20.40;65.50
10270;DHT22;70826;50.930;5.334;2023-12-20T12:45:44;20.40;65.50
10270;DHT22;70826;50.930;5.334;2023-12-20T12:48:10;20.40;65.50
10270;DHT22;70826;50.930;5.334;2023-12-20T12:50:38;20.40;65.50
10270;DHT22;70826;50.930;5.334;2023-12-20T12:53:04;20.40;65.50
10270;DHT22;70826;50.930;5.334;2023-12-20T12:55:29;20.40;65.60
10270;DHT22;70826;50.930;5.334;2023-12-20T12:57:55;20.40;65.60
10270;DHT22;70826;50.930;5.334;2023-12-20T13:00:23;20.40;65.70
10270;DHT22;70826;50.930;5.334;2023-12-20T13:02:52;20.40;66.00
10270;DHT22;70826;50.930;5.334;2023-12-20T13:05:17;20.40;66.00
10270;DHT22;70826;50.930;5.334;2023-12-20T13:07:45;20.40;66.00
10270;DHT22;70826;50.930;5.334;2023-12-20T13:10:16;20.40;66.60
10270;DHT22;70826;50.930;5.334;2023-12-20T13:12:42;20.40;66.70
10270;DHT22;70826;50.930;5.334;2023-12-20T13:15:10;20.40;66.90
10270;DHT22;70826;50.930;5.334;2023-12-20T13:17:36;20.30;67.20
10270;DHT22;70826;50.930;5.334;2023-12-20T13:20:08;20.30;67.50
10270;DHT22;70826;50.930;5.334;2023-12-20T13:22:34;20.30;67.60
10270;DHT22;70826;50.930;5.334;2023-12-20T13:25:01;20.40;67.50
10270;DHT22;70826;50.930;5.334;2023-12-20T13:27:28;20.40;67.40
10270;DHT22;70826;50.930;5.334;2023-12-20T13:29:54;20.40;68.00
10270;DHT22;70826;50.930;5.334;2023-12-20T13:32:19;20.40;67.30
10270;DHT22;70826;50.930;5.334;2023-12-20T13:34:45;20.50;67.30
10270;DHT22;70826;50.930;5.334;2023-12-20T13:37:11;20.40;67.30
10270;DHT22;70826;50.930;5.334;2023-12-20T13:39:37;20.40;67.20
10270;DHT22;70826;50.930;5.334;2023-12-20T13:42:03;20.40;67.20
10270;DHT22;70826;50.930;5.334;2023-12-20T13:44:31;20.40;67.10
10270;DHT22;70826;50.930;5.334;2023-12-20T13:46:59;20.40;67.20
10270;DHT22;70826;50.930;5.334;2023-12-20T13:49:24;20.40;67.10
10270;DHT22;70826;50.930;5.334;2023-12-20T13:51:51;20.40;67.10
10270;DHT22;70826;50.930;5.334;2023-12-20T13:54:16;20.40;67.00
10270;DHT22;70826;50.930;5.334;2023-12-20T13:56:45;20.40;67.00
10270;DHT22;70826;50.930;5.334;2023-12-20T13:59:11;20.40;66.90
10270;DHT22;70826;50.930;5.334;2023-12-20T14:01:42;20.40;66.90
10270;DHT22;70826;50.930;5.334;2023-12-20T14:04:12;20.40;66.90
10270;DHT22;70826;50.930;5.334;2023-12-20T14:06:38;20.40;66.80
10270;DHT22;70826;50.930;5.334;2023-12-20T14:09:06;20.40;66.80
10270;DHT22;70826;50.930;5.334;2023-12-20T14:11:34;20.40;66.80
10270;DHT22;70826;50.930;5.334;2023-12-20T14:13:59;20.40;66.80
10270;DHT22;70826;50.930;5.334;2023-12-20T14:16:32;20.40;66.80
10270;DHT22;70826;50.930;5.334;2023-12-20T14:19:00;20.40;66.80
10270;DHT22;70826;50.930;5.334;2023-12-20T14:21:28;20.40;66.80
10270;DHT22;70826;50.930;5.334;2023-12-20T14:23:54;20.40;66.80
10270;DHT22;70826;50.930;5.334;2023-12-20T14:26:24;20.40;66.80
10270;DHT22;70826;50.930;5.334;2023-12-20T14:28:53;20.40;66.80
10270;DHT22;70826;50.930;5.334;2023-12-20T14:31:23;20.30;66.70
10270;DHT22;70826;50.930;5.334;2023-12-20T14:33:53;20.30;66.70
10270;DHT22;70826;50.930;5.334;2023-12-20T14:36:19;20.30;66.70
10270;DHT22;70826;50.930;5.334;2023-12-20T14:38:46;20.30;66.70
10270;DHT22;70826;50.930;5.334;2023-12-20T14:41:18;20.40;66.70
10270;DHT22;70826;50.930;5.334;2023-12-20T14:43:49;20.30;66.70
10270;DHT22;70826;50.930;5.334;2023-12-20T14:46:23;20.30;66.70
10270;DHT22;70826;50.930;5.334;2023-12-20T14:48:48;20.30;66.70
10270;DHT22;70826;50.930;5.334;2023-12-20T14:51:16;20.30;66.70
10270;DHT22;70826;50.930;5.334;2023-12-20T14:53:44;20.30;66.70
10270;DHT22;70826;50.930;5.334;2023-12-20T14:56:12;20.30;66.70
10270;DHT22;70826;50.930;5.334;2023-12-20T14:58:40;20.30;66.70
10270;DHT22;70826;50.930;5.334;2023-12-20T15:01:06;20.30;66.70
10270;DHT22;70826;50.930;5.334;2023-12-20T15:03:34;20.30;66.70
10270;DHT22;70826;50.930;5.334;2023-12-20T15:06:02;20.30;66.70
10270;DHT22;70826;50.930;5.334;2023-12-20T15:08:30;20.30;66.70
10270;DHT22;70826;50.930;5.334;2023-12-20T15:10:56;20.30;66.70
10270;DHT22;70826;50.930;5.334;2023-12-20T15:13:21;20.30;66.70
10270;DHT22;70826;50.930;5.334;2023-12-20T15:15:51;20.30;66.70
10270;DHT22;70826;50.930;5.334;2023-12-20T15:18:17;20.30;66.70
10270;DHT22;70826;50.930;5.334;2023-12-20T15:20:45;20.30;66.70
10270;DHT22;70826;50.930;5.334;2023-12-20T15:23:13;20.30;66.70
10270;DHT22;70826;50.930;5.334;2023-12-20T15:25:39;20.30;66.60
10270;DHT22;70826;50.930;5.334;2023-12-20T15:28:07;20.30;66.70
10270;DHT22;70826;50.930;5.334;2023-12-20T15:30:37;20.30;66.70
10270;DHT22;70826;50.930;5.334;2023-12-20T15:33:03;20.30;66.70
10270;DHT22;70826;50.930;5.334;2023-12-20T15:35:33;20.30;66.70
10270;DHT22;70826;50.930;5.334;2023-12-20T15:38:01;20.30;66.70